createdAt,value
2019-01-02T00:00:33.718Z,27.77
2019-01-02T00:03:02.690Z,19.60
2019-01-02T00:05:32.059Z,18.13
2019-01-02T00:08:01.022Z,15.57
2019-01-02T00:10:30.098Z,16.53
2019-01-02T00:12:59.014Z,25.00
2019-01-02T00:15:28.340Z,20.70
2019-01-02T00:17:57.179Z,20.33
2019-01-02T00:20:26.283Z,26.40
2019-01-02T00:22:55.135Z,18.63
2019-01-02T00:25:23.979Z,20.97
2019-01-02T00:27:53.230Z,17.40
2019-01-02T00:30:22.139Z,18.43
2019-01-02T00:32:51.267Z,22.77
2019-01-02T00:35:20.225Z,24.27
2019-01-02T00:37:49.416Z,20.83
2019-01-02T00:40:18.335Z,19.43
2019-01-02T00:42:47.976Z,19.87
2019-01-02T00:45:22.320Z,17.73
2019-01-02T00:47:47.952Z,16.80
2019-01-02T00:50:16.771Z,17.90
2019-01-02T00:52:45.632Z,23.10
2019-01-02T00:55:14.622Z,26.33
2019-01-02T00:57:43.551Z,16.43
2019-01-02T01:00:15.816Z,18.23
2019-01-02T01:02:44.651Z,24.13
2019-01-02T01:05:13.782Z,21.53
2019-01-02T01:07:43.066Z,17.83
2019-01-02T01:10:13.987Z,25.40
2019-01-02T01:12:43.295Z,22.70
2019-01-02T01:15:12.185Z,25.07
2019-01-02T01:17:41.597Z,17.83
2019-01-02T01:20:11.576Z,23.57
2019-01-02T01:22:40.434Z,23.67
2019-01-02T01:25:09.399Z,27.07
2019-01-02T01:27:38.238Z,25.83
2019-01-02T01:30:08.479Z,16.97
2019-01-02T01:32:37.332Z,20.73
2019-01-02T01:35:08.243Z,19.97
2019-01-02T01:37:37.361Z,23.17
2019-01-02T01:40:08.475Z,22.00
2019-01-02T01:42:37.312Z,20.50
2019-01-02T01:45:08.260Z,25.80
2019-01-02T01:47:37.023Z,19.60
2019-01-02T01:50:06.623Z,17.87
2019-01-02T01:52:35.525Z,33.50
2019-01-02T01:55:04.597Z,17.70
2019-01-02T01:57:33.446Z,21.47
2019-01-02T02:00:02.290Z,18.30
2019-01-02T02:02:31.437Z,29.50
2019-01-02T02:05:00.238Z,19.10
2019-01-02T02:07:29.009Z,20.90
2019-01-02T02:09:57.953Z,25.50
2019-01-02T02:12:26.964Z,17.30
2019-01-02T02:14:56.117Z,22.30
2019-01-02T02:17:25.285Z,17.47
2019-01-02T02:19:54.313Z,23.17
2019-01-02T02:22:23.454Z,18.37
2019-01-02T02:24:52.312Z,20.17
2019-01-02T02:27:21.170Z,26.60
2019-01-02T02:29:50.044Z,27.70
2019-01-02T02:32:18.950Z,19.93
2019-01-02T02:34:47.812Z,21.83
2019-01-02T02:37:16.600Z,24.23
2019-01-02T02:39:45.390Z,17.67
2019-01-02T02:42:14.448Z,18.27
2019-01-02T02:44:43.607Z,22.73
2019-01-02T02:47:12.801Z,22.67
2019-01-02T02:49:41.589Z,29.07
2019-01-02T02:52:10.692Z,16.47
2019-01-02T02:54:39.479Z,17.50
2019-01-02T02:57:08.256Z,18.13
2019-01-02T02:59:37.038Z,17.83
2019-01-02T03:02:06.245Z,25.20
2019-01-02T03:04:35.332Z,16.87
2019-01-02T03:07:04.509Z,16.70
2019-01-02T03:09:33.296Z,30.40
2019-01-02T03:12:02.178Z,21.80
2019-01-02T03:14:30.982Z,26.97
2019-01-02T03:17:00.110Z,19.90
2019-01-02T03:19:29.307Z,20.03
2019-01-02T03:21:58.689Z,18.27
2019-01-02T03:24:27.665Z,18.40
2019-01-02T03:26:56.606Z,26.60
2019-01-02T03:29:25.374Z,22.33
2019-01-02T03:31:54.525Z,19.40
2019-01-02T03:34:23.667Z,16.67
2019-01-02T03:36:52.522Z,18.30
2019-01-02T03:39:21.563Z,23.03
2019-01-02T03:41:50.749Z,18.80
2019-01-02T03:44:19.522Z,18.10
2019-01-02T03:46:48.310Z,24.23
2019-01-02T03:49:17.094Z,23.73
2019-01-02T03:51:46.118Z,20.03
2019-01-02T03:54:15.133Z,25.77
2019-01-02T03:56:43.914Z,23.73
2019-01-02T03:59:12.839Z,29.90
2019-01-02T04:01:41.621Z,22.20
2019-01-02T04:04:10.412Z,21.93
2019-01-02T04:06:39.190Z,20.43
2019-01-02T04:09:10.134Z,22.00
2019-01-02T04:11:38.902Z,25.47
2019-01-02T04:14:07.760Z,18.67
2019-01-02T04:16:36.627Z,22.83
2019-01-02T04:19:05.857Z,18.93
2019-01-02T04:21:34.648Z,22.43
2019-01-02T04:24:03.568Z,26.63
2019-01-02T04:26:32.346Z,24.20
2019-01-02T04:29:01.194Z,23.27
2019-01-02T04:31:29.985Z,21.77
2019-01-02T04:33:59.244Z,18.57
2019-01-02T04:36:28.036Z,20.87
2019-01-02T04:38:56.891Z,27.53
2019-01-02T04:41:25.737Z,22.83
2019-01-02T04:43:54.611Z,17.43
2019-01-02T04:46:23.480Z,23.87
2019-01-02T04:48:52.392Z,21.70
2019-01-02T04:51:21.414Z,21.93
2019-01-02T04:53:50.343Z,24.13
2019-01-02T04:56:19.260Z,24.90
2019-01-02T04:58:48.092Z,23.67
2019-01-02T05:01:17.450Z,17.97
2019-01-02T05:03:46.316Z,26.13
2019-01-02T05:06:15.409Z,21.23
2019-01-02T05:08:44.216Z,22.20
2019-01-02T05:11:13.563Z,27.73
2019-01-02T05:13:42.678Z,30.40
2019-01-02T05:16:11.657Z,19.90
2019-01-02T05:18:40.467Z,28.87
2019-01-02T05:21:09.331Z,19.30
2019-01-02T05:23:38.464Z,16.47
2019-01-02T05:26:07.225Z,19.23
2019-01-02T05:28:36.139Z,18.97
2019-01-02T05:31:05.130Z,24.60
2019-01-02T05:33:34.027Z,26.97
2019-01-02T05:36:02.830Z,33.40
2019-01-02T05:38:31.604Z,24.70
2019-01-02T05:41:00.397Z,24.73
2019-01-02T05:43:29.241Z,29.90
2019-01-02T05:45:58.163Z,88.43
2019-01-02T05:48:27.018Z,51.73
2019-01-02T05:50:55.945Z,21.20
2019-01-02T05:53:24.713Z,48.20
2019-01-02T05:55:53.659Z,27.37
2019-01-02T05:58:22.473Z,32.47
2019-01-02T06:00:51.267Z,29.50
2019-01-02T06:03:20.043Z,33.20
2019-01-02T06:05:48.902Z,24.30
2019-01-02T06:08:17.783Z,31.40
2019-01-02T06:10:46.647Z,27.10
2019-01-02T06:13:15.682Z,24.13
2019-01-02T06:15:44.601Z,28.13
2019-01-02T06:18:13.416Z,22.03
2019-01-02T06:20:42.206Z,27.87
2019-01-02T06:23:10.978Z,20.33
2019-01-02T06:25:39.749Z,26.77
2019-01-02T06:28:08.605Z,22.57
2019-01-02T06:30:37.370Z,19.77
2019-01-02T06:33:06.977Z,20.83
2019-01-02T06:35:36.241Z,26.17
2019-01-02T06:38:05.561Z,25.37
2019-01-02T06:40:34.593Z,27.87
2019-01-02T06:43:03.724Z,32.43
2019-01-02T06:45:32.554Z,29.67
2019-01-02T06:48:01.338Z,29.53
2019-01-02T06:50:30.120Z,25.37
2019-01-02T06:52:58.919Z,23.13
2019-01-02T06:55:27.933Z,24.00
2019-01-02T06:57:56.792Z,26.97
2019-01-02T07:00:31.438Z,22.97
2019-01-02T07:03:00.225Z,28.27
2019-01-02T07:05:29.299Z,30.27
2019-01-02T07:07:58.312Z,20.67
2019-01-02T07:10:27.248Z,16.37
2019-01-02T07:12:56.053Z,21.93
2019-01-02T07:15:24.910Z,24.30
2019-01-02T07:17:53.685Z,15.17
2019-01-02T07:20:22.817Z,21.43
2019-01-02T07:22:51.593Z,21.90
2019-01-02T07:25:20.386Z,24.33
2019-01-02T07:27:49.409Z,28.73
2019-01-02T07:30:20.754Z,26.40
2019-01-02T07:32:49.763Z,29.07
2019-01-02T07:36:03.792Z,26.97
2019-01-02T07:38:49.745Z,24.63
2019-01-02T07:42:06.194Z,19.40
2019-01-02T07:45:08.201Z,20.60
2019-01-02T07:48:10.415Z,22.03
2019-01-02T07:51:25.831Z,22.27
2019-01-02T07:54:29.031Z,23.17
2019-01-02T07:57:48.044Z,19.53
2019-01-02T08:00:35.197Z,22.43
2019-01-02T08:03:40.122Z,22.77
2019-01-02T08:06:31.051Z,19.03
2019-01-02T08:09:49.393Z,25.10
2019-01-02T08:12:40.750Z,24.33
2019-01-02T08:15:45.554Z,13.27
2019-01-02T08:18:37.123Z,20.00
2019-01-02T08:21:44.067Z,24.67
2019-01-02T08:24:45.091Z,21.57
2019-01-02T08:28:10.060Z,22.43
2019-01-02T08:30:52.674Z,25.53
2019-01-02T08:34:08.127Z,24.47
2019-01-02T08:37:03.821Z,15.70
2019-01-02T08:40:14.095Z,24.97
2019-01-02T08:43:27.376Z,23.70
2019-01-02T08:46:31.878Z,20.30
2019-01-02T08:49:24.250Z,21.17
2019-01-02T08:52:44.450Z,24.13
2019-01-02T08:55:47.746Z,25.97
2019-01-02T08:58:52.725Z,27.07
2019-01-02T09:02:00.843Z,24.83
2019-01-02T09:05:22.715Z,17.90
2019-01-02T09:08:24.054Z,28.47
2019-01-02T09:11:46.195Z,17.67
2019-01-02T09:15:04.175Z,19.43
2019-01-02T09:18:09.398Z,21.67
2019-01-02T09:21:22.328Z,24.30
2019-01-02T09:24:22.589Z,21.93
2019-01-02T09:27:29.678Z,24.20
2019-01-02T09:30:48.717Z,24.77
2019-01-02T09:33:40.914Z,21.80
2019-01-02T09:36:30.161Z,12.87
2019-01-02T09:39:41.833Z,24.57
2019-01-02T09:42:44.121Z,14.73
2019-01-02T09:46:01.817Z,21.30
2019-01-02T09:49:09.922Z,25.43
2019-01-02T09:52:24.884Z,22.00
2019-01-02T09:55:16.977Z,25.27
2019-01-02T09:58:45.183Z,29.60
2019-01-02T10:01:32.645Z,19.10
2019-01-02T10:04:41.542Z,24.87
2019-01-02T10:07:47.006Z,25.70
2019-01-02T10:10:58.018Z,35.63
2019-01-02T10:14:11.025Z,16.83
2019-01-02T10:17:06.482Z,16.70
2019-01-02T10:20:09.381Z,22.70
2019-01-02T10:23:15.801Z,14.43
2019-01-02T10:26:20.459Z,21.40
2019-01-02T10:29:38.618Z,20.10
2019-01-02T10:32:29.083Z,15.83
2019-01-02T10:35:25.008Z,13.80
2019-01-02T10:38:50.291Z,23.13
2019-01-02T10:42:21.479Z,15.77
2019-01-02T10:45:52.743Z,21.30
2019-01-02T10:48:49.938Z,14.13
2019-01-02T10:51:55.829Z,16.90
2019-01-02T10:54:53.934Z,17.80
2019-01-02T10:57:55.905Z,19.87
2019-01-02T11:01:09.366Z,11.57
2019-01-02T11:04:07.662Z,15.20
2019-01-02T11:07:17.057Z,18.23
2019-01-02T11:10:31.966Z,13.17
2019-01-02T11:13:53.974Z,14.43
2019-01-02T11:17:02.861Z,14.23
2019-01-02T11:19:55.750Z,12.97
2019-01-02T11:23:00.836Z,13.27
2019-01-02T11:26:16.995Z,11.80
2019-01-02T11:29:17.904Z,12.47
2019-01-02T11:32:26.954Z,14.47
2019-01-02T11:35:48.006Z,14.67
2019-01-02T11:38:46.885Z,11.17
2019-01-02T11:41:42.077Z,10.77
2019-01-02T11:45:01.662Z,18.73
2019-01-02T11:47:30.450Z,12.43
2019-01-02T11:49:59.247Z,11.20
2019-01-02T11:52:28.001Z,11.87
2019-01-02T11:54:56.809Z,10.30
2019-01-02T11:57:25.868Z,11.83
2019-01-02T11:59:55.053Z,7.03
2019-01-02T12:02:23.813Z,12.37
2019-01-02T12:04:52.686Z,10.60
2019-01-02T12:07:21.533Z,8.93
2019-01-02T12:09:50.392Z,11.20
2019-01-02T12:12:19.493Z,8.23
2019-01-02T12:14:48.421Z,9.50
2019-01-02T12:17:17.209Z,8.77
2019-01-02T12:19:45.998Z,12.53
2019-01-02T12:22:14.782Z,10.87
2019-01-02T12:24:43.941Z,10.20
2019-01-02T12:27:12.821Z,10.73
2019-01-02T12:29:41.645Z,12.07
2019-01-02T12:32:10.466Z,7.70
2019-01-02T12:34:39.386Z,6.83
2019-01-02T12:37:08.496Z,7.57
2019-01-02T12:39:37.710Z,6.30
2019-01-02T12:42:06.596Z,10.13
2019-01-02T12:44:35.392Z,8.53
2019-01-02T12:47:04.614Z,12.40
2019-01-02T12:49:33.374Z,8.50
2019-01-02T12:52:02.161Z,14.43
2019-01-02T12:54:30.929Z,12.23
2019-01-02T12:56:59.778Z,10.77
2019-01-02T12:59:28.953Z,12.50
2019-01-02T13:02:16.274Z,8.13
2019-01-02T13:05:03.276Z,11.43
2019-01-02T13:08:14.574Z,11.53
2019-01-02T13:10:58.045Z,8.50
2019-01-02T13:13:44.669Z,8.17
2019-01-02T13:17:00.962Z,12.67
2019-01-02T13:20:06.872Z,11.27
2019-01-02T13:23:03.621Z,11.10
2019-01-02T13:26:00.697Z,10.60
2019-01-02T13:28:40.577Z,14.00
2019-01-02T13:31:52.869Z,12.57
2019-01-02T13:35:11.999Z,10.90
2019-01-02T13:38:27.353Z,10.07
2019-01-02T13:41:15.536Z,4.50
2019-01-02T13:44:10.254Z,11.90
2019-01-02T13:47:29.190Z,9.00
2019-01-02T13:50:28.716Z,9.83
2019-01-02T13:52:59.257Z,7.83
2019-01-02T13:55:28.017Z,8.47
2019-01-02T13:57:56.802Z,12.20
2019-01-02T14:00:25.569Z,8.60
2019-01-02T14:02:54.350Z,7.60
2019-01-02T14:05:23.948Z,13.37
2019-01-02T14:07:52.734Z,5.83
2019-01-02T14:10:21.580Z,5.73
2019-01-02T14:12:51.024Z,6.33
2019-01-02T14:15:19.817Z,9.43
2019-01-02T14:17:48.654Z,7.10
2019-01-02T14:20:17.443Z,6.70
2019-01-02T14:22:46.201Z,6.40
2019-01-02T14:25:14.973Z,11.37
2019-01-02T14:27:44.026Z,5.60
2019-01-02T14:30:13.193Z,5.10
2019-01-02T14:32:41.997Z,7.27
2019-01-02T14:35:11.154Z,3.80
2019-01-02T14:37:40.209Z,4.10
2019-01-02T14:40:09.662Z,9.43
2019-01-02T14:42:38.687Z,7.80
2019-01-02T14:45:08.336Z,4.43
2019-01-02T14:47:37.117Z,5.93
2019-01-02T14:50:06.790Z,5.13
2019-01-02T14:52:35.558Z,7.00
2019-01-02T14:55:04.485Z,4.60
2019-01-02T14:57:33.373Z,6.37
2019-01-02T15:00:02.269Z,4.03
2019-01-02T15:02:31.043Z,10.13
2019-01-02T15:05:00.051Z,3.87
2019-01-02T15:07:29.002Z,6.20
2019-01-02T15:09:57.829Z,5.93
2019-01-02T15:12:26.760Z,3.30
2019-01-02T15:14:55.565Z,5.20
2019-01-02T15:17:25.356Z,10.80
2019-01-02T15:19:54.365Z,52.57
2019-01-02T15:22:23.207Z,7.33
2019-01-02T15:24:52.219Z,3.87
2019-01-02T15:27:21.005Z,4.47
2019-01-02T15:29:50.082Z,7.37
2019-01-02T15:32:18.954Z,6.30
2019-01-02T15:34:47.718Z,14.23
2019-01-02T15:37:16.577Z,7.03
2019-01-02T15:39:45.425Z,6.53
2019-01-02T15:42:14.202Z,6.43
2019-01-02T15:44:43.063Z,7.80
2019-01-02T15:47:11.854Z,7.20
2019-01-02T15:49:40.735Z,3.83
2019-01-02T15:52:09.513Z,8.03
2019-01-02T15:54:38.723Z,11.97
2019-01-02T15:57:07.701Z,7.00
2019-01-02T15:59:36.493Z,7.07
2019-01-02T16:02:05.641Z,6.13
2019-01-02T16:04:34.518Z,6.70
2019-01-02T16:07:03.626Z,6.93
2019-01-02T16:09:32.570Z,6.90
2019-01-02T16:12:01.362Z,4.60
2019-01-02T16:14:30.478Z,10.80
2019-01-02T16:16:59.658Z,8.07
2019-01-02T16:19:28.831Z,9.63
2019-01-02T16:21:57.806Z,5.30
2019-01-02T16:24:26.876Z,16.00
2019-01-02T16:26:55.670Z,6.97
2019-01-02T16:29:24.891Z,22.87
2019-01-02T16:31:53.922Z,20.17
2019-01-02T16:34:22.805Z,46.33
2019-01-02T16:36:51.661Z,57.33
2019-01-02T16:39:20.462Z,25.97
2019-01-02T16:41:49.274Z,21.20
2019-01-02T16:44:18.139Z,39.47
2019-01-02T16:46:47.046Z,16.33
2019-01-02T16:49:16.640Z,16.83
2019-01-02T16:51:46.081Z,21.57
2019-01-02T16:54:15.677Z,11.00
2019-01-02T16:56:45.433Z,7.73
2019-01-02T16:59:14.962Z,13.90
2019-01-02T17:01:45.311Z,8.20
2019-01-02T17:04:14.118Z,4.47
2019-01-02T17:06:43.117Z,63.63
2019-01-02T17:09:12.033Z,60.10
2019-01-02T17:11:41.286Z,14.47
2019-01-02T17:14:10.199Z,5.77
2019-01-02T17:16:39.045Z,14.60
2019-01-02T17:19:07.910Z,8.80
2019-01-02T17:21:36.843Z,5.90
2019-01-02T17:24:05.632Z,4.67
2019-01-02T17:26:34.388Z,7.63
2019-01-02T17:29:03.191Z,3.90
2019-01-02T17:31:32.215Z,9.40
2019-01-02T17:34:01.322Z,12.77
2019-01-02T17:36:30.086Z,9.50
2019-01-02T17:38:59.110Z,8.93
2019-01-02T17:41:31.111Z,8.50
2019-01-02T17:43:59.895Z,11.70
2019-01-02T17:46:28.693Z,7.23
2019-01-02T17:48:57.714Z,13.23
2019-01-02T17:51:26.514Z,10.57
2019-01-02T17:53:55.541Z,9.60
2019-01-02T17:56:24.331Z,6.73
2019-01-02T17:58:53.184Z,9.13
2019-01-02T18:01:22.117Z,5.93
2019-01-02T18:03:50.901Z,6.57
2019-01-02T18:06:19.761Z,9.30
2019-01-02T18:08:48.535Z,9.10
2019-01-02T18:11:17.339Z,6.87
2019-01-02T18:13:46.114Z,13.40
2019-01-02T18:16:16.264Z,5.33
2019-01-02T18:18:45.374Z,9.90
2019-01-02T18:21:14.225Z,7.40
2019-01-02T18:23:42.987Z,9.87
2019-01-02T18:26:12.022Z,7.03
2019-01-02T18:28:41.030Z,13.53
2019-01-02T18:31:09.839Z,9.50
2019-01-02T18:33:38.931Z,10.90
2019-01-02T18:36:08.009Z,8.90
2019-01-02T18:38:36.774Z,13.03
2019-01-02T18:41:05.674Z,7.67
2019-01-02T18:43:34.439Z,9.37
2019-01-02T18:46:03.301Z,9.30
2019-01-02T18:48:32.073Z,9.07
2019-01-02T18:51:00.922Z,12.37
2019-01-02T18:53:29.697Z,11.57
2019-01-02T18:55:58.866Z,8.50
2019-01-02T18:58:27.677Z,14.67
2019-01-02T19:00:56.465Z,10.87
2019-01-02T19:03:25.245Z,14.00
2019-01-02T19:05:54.023Z,10.47
2019-01-02T19:08:23.049Z,9.77
2019-01-02T19:10:51.825Z,10.83
2019-01-02T19:13:21.018Z,15.53
2019-01-02T19:15:49.883Z,12.20
2019-01-02T19:18:18.665Z,9.63
2019-01-02T19:20:47.776Z,11.93
2019-01-02T19:23:16.793Z,15.17
2019-01-02T19:25:45.563Z,13.87
2019-01-02T19:28:14.359Z,9.50
2019-01-02T19:30:43.133Z,9.63
2019-01-02T19:33:11.905Z,7.27
2019-01-02T19:35:40.746Z,5.63
2019-01-02T19:38:09.526Z,5.03
2019-01-02T19:40:38.308Z,9.70
2019-01-02T19:43:07.107Z,8.53
2019-01-02T19:45:35.873Z,11.73
2019-01-02T19:48:04.654Z,5.43
2019-01-02T19:50:33.833Z,10.50
2019-01-02T19:53:02.643Z,20.60
2019-01-02T19:55:31.521Z,10.37
2019-01-02T19:58:00.318Z,11.43
2019-01-02T20:00:29.086Z,9.03
2019-01-02T20:02:57.885Z,10.37
2019-01-02T20:05:26.721Z,8.43
2019-01-02T20:07:55.868Z,11.23
2019-01-02T20:10:24.703Z,6.70
2019-01-02T20:12:53.537Z,8.00
2019-01-02T20:15:22.309Z,7.67
2019-01-02T20:17:51.103Z,10.43
2019-01-02T20:20:19.875Z,3.97
2019-01-02T20:22:48.927Z,5.57
2019-01-02T20:25:17.786Z,8.27
2019-01-02T20:27:46.674Z,7.00
2019-01-02T20:30:15.463Z,8.70
2019-01-02T20:32:44.260Z,8.40
2019-01-02T20:35:13.157Z,7.27
2019-01-02T20:37:42.221Z,9.83
2019-01-02T20:40:11.103Z,8.20
2019-01-02T20:42:39.917Z,11.73
2019-01-02T20:45:08.772Z,6.73
2019-01-02T20:47:37.901Z,7.13
2019-01-02T20:50:08.525Z,14.07
2019-01-02T20:52:37.312Z,7.67
2019-01-02T20:55:06.501Z,11.67
2019-01-02T20:57:35.296Z,6.47
2019-01-02T21:00:04.646Z,5.67
2019-01-02T21:02:33.566Z,8.13
2019-01-02T21:05:02.346Z,7.67
2019-01-02T21:07:31.109Z,10.27
2019-01-02T21:09:59.890Z,6.77
2019-01-02T21:12:28.922Z,9.57
2019-01-02T21:14:57.753Z,5.43
2019-01-02T21:17:26.529Z,14.67
2019-01-02T21:19:55.572Z,12.73
2019-01-02T21:22:24.421Z,11.97
2019-01-02T21:24:53.303Z,10.77
2019-01-02T21:27:22.113Z,8.60
2019-01-02T21:29:51.146Z,10.83
2019-01-02T21:32:19.917Z,8.63
2019-01-02T21:34:48.808Z,6.83
2019-01-02T21:37:17.689Z,10.53
2019-01-02T21:39:46.683Z,12.77
2019-01-02T21:42:15.525Z,13.13
2019-01-02T21:44:44.460Z,13.37
2019-01-02T21:47:13.237Z,6.53
2019-01-02T21:49:42.301Z,7.57
2019-01-02T21:52:11.293Z,7.80
2019-01-02T21:54:41.101Z,10.17
2019-01-02T21:57:10.355Z,73.73
2019-01-02T21:59:39.159Z,32.97
2019-01-02T22:02:08.157Z,20.93
2019-01-02T22:04:37.257Z,10.13
2019-01-02T22:07:06.139Z,9.23
2019-01-02T22:09:34.913Z,8.67
2019-01-02T22:12:03.765Z,9.33
2019-01-02T22:14:32.561Z,13.93
2019-01-02T22:17:01.341Z,8.43
2019-01-02T22:19:30.149Z,10.57
2019-01-02T22:21:59.042Z,12.10
2019-01-02T22:24:27.814Z,9.23
2019-01-02T22:26:56.598Z,8.80
2019-01-02T22:29:25.388Z,12.60
2019-01-02T22:31:54.241Z,8.13
2019-01-02T22:34:23.085Z,9.43
2019-01-02T22:36:51.930Z,11.87
2019-01-02T22:39:20.715Z,7.03
2019-01-02T22:41:49.495Z,9.07
2019-01-02T22:44:18.300Z,6.40
2019-01-02T22:46:47.161Z,8.40
2019-01-02T22:49:15.942Z,7.17
2019-01-02T22:51:44.716Z,13.10
2019-01-02T22:54:13.576Z,8.17
2019-01-02T22:56:42.341Z,9.63
2019-01-02T22:59:11.125Z,9.97
2019-01-02T23:01:45.089Z,9.63
2019-01-02T23:04:31.621Z,7.93
2019-01-02T23:07:18.226Z,8.80
2019-01-02T23:10:05.401Z,5.93
2019-01-02T23:12:53.258Z,8.83
2019-01-02T23:15:46.298Z,9.93
2019-01-02T23:18:37.269Z,11.83
2019-01-02T23:21:34.926Z,9.67
2019-01-02T23:24:21.878Z,10.03
2019-01-02T23:27:08.450Z,7.13
2019-01-02T23:29:54.366Z,8.57
2019-01-02T23:32:53.183Z,10.73
2019-01-02T23:35:41.017Z,11.10
2019-01-02T23:38:37.961Z,9.37
2019-01-02T23:41:24.708Z,12.30
2019-01-02T23:44:24.626Z,13.30
2019-01-02T23:47:27.810Z,10.27
2019-01-02T23:50:10.662Z,10.17
2019-01-02T23:53:13.814Z,12.60
2019-01-02T23:56:16.623Z,12.57
2019-01-02T23:59:09.295Z,15.40
